sensor_id;sensor_type;location;lat;lon;timestamp;pressure;altitude;pressure_sealevel;temperature;humidity
76205;BME280;64986;55.672;37.628;2023-02-01T00:02:17;98218.78;;;0.45;78.31
76205;BME280;64986;55.672;37.628;2023-02-01T00:04:43;98226.72;;;0.43;78.16
76205;BME280;64986;55.672;37.628;2023-02-01T00:07:08;98221.09;;;0.40;78.19
76205;BME280;64986;55.672;37.628;2023-02-01T00:09:34;98227.03;;;0.48;78.24
76205;BME280;64986;55.672;37.628;2023-02-01T00:11:59;98222.81;;;0.47;77.96
76205;BME280;64986;55.672;37.628;2023-02-01T00:14:27;98232.25;;;0.40;78.41
76205;BME280;64986;55.672;37.628;2023-02-01T00:16:53;98223.69;;;0.40;78.43
76205;BME280;64986;55.672;37.628;2023-02-01T00:19:18;98224.50;;;0.40;78.63
76205;BME280;64986;55.672;37.628;2023-02-01T00:21:44;98224.44;;;0.48;77.98
76205;BME280;64986;55.672;37.628;2023-02-01T00:24:11;98220.13;;;0.41;78.43
76205;BME280;64986;55.672;37.628;2023-02-01T00:26:40;98218.50;;;0.40;77.96
76205;BME280;64986;55.672;37.628;2023-02-01T00:29:11;98227.81;;;0.49;77.95
76205;BME280;64986;55.672;37.628;2023-02-01T00:31:38;98226.72;;;0.43;78.13
76205;BME280;64986;55.672;37.628;2023-02-01T00:34:04;98225.91;;;0.43;78.31
76205;BME280;64986;55.672;37.628;2023-02-01T00:36:29;98229.44;;;0.50;78.21
76205;BME280;64986;55.672;37.628;2023-02-01T00:38:55;98213.59;;;0.53;78.03
76205;BME280;64986;55.672;37.628;2023-02-01T00:41:21;98220.00;;;0.57;77.60
76205;BME280;64986;55.672;37.628;2023-02-01T00:43:48;98225.75;;;0.44;77.65
76205;BME280;64986;55.672;37.628;2023-02-01T00:46:14;98229.25;;;0.51;77.85
76205;BME280;64986;55.672;37.628;2023-02-01T00:48:40;98220.06;;;0.49;78.01
76205;BME280;64986;55.672;37.628;2023-02-01T00:51:11;98217.47;;;0.49;77.54
76205;BME280;64986;55.672;37.628;2023-02-01T00:53:37;98209.28;;;0.37;77.64
76205;BME280;64986;55.672;37.628;2023-02-01T00:56:04;98217.03;;;0.37;77.67
76205;BME280;64986;55.672;37.628;2023-02-01T00:58:30;98211.88;;;0.37;78.20
76205;BME280;64986;55.672;37.628;2023-02-01T01:03:28;98215.97;;;0.32;78.13
76205;BME280;64986;55.672;37.628;2023-02-01T01:05:58;98215.00;;;0.33;78.09
76205;BME280;64986;55.672;37.628;2023-02-01T01:08:24;98224.53;;;0.32;78.15
76205;BME280;64986;55.672;37.628;2023-02-01T01:10:50;98221.38;;;0.45;77.64
76205;BME280;64986;55.672;37.628;2023-02-01T01:13:15;98222.34;;;0.44;77.42
76205;BME280;64986;55.672;37.628;2023-02-01T01:15:41;98215.00;;;0.33;77.57
76205;BME280;64986;55.672;37.628;2023-02-01T01:18:08;98210.94;;;0.30;78.18
76205;BME280;64986;55.672;37.628;2023-02-01T01:20:35;98222.94;;;0.31;77.68
76205;BME280;64986;55.672;37.628;2023-02-01T01:23:01;98223.38;;;0.35;78.00
76205;BME280;64986;55.672;37.628;2023-02-01T01:25:27;98215.31;;;0.30;78.01
76205;BME280;64986;55.672;37.628;2023-02-01T01:27:53;98219.38;;;0.32;77.88
76205;BME280;64986;55.672;37.628;2023-02-01T01:30:18;98223.75;;;0.32;77.91
76205;BME280;64986;55.672;37.628;2023-02-01T01:32:44;98222.31;;;0.21;77.93
76205;BME280;64986;55.672;37.628;2023-02-01T01:35:10;98233.28;;;0.31;77.91
76205;BME280;64986;55.672;37.628;2023-02-01T01:37:36;98233.72;;;0.35;77.73
76205;BME280;64986;55.672;37.628;2023-02-01T01:40:03;98231.66;;;0.30;78.11
76205;BME280;64986;55.672;37.628;2023-02-01T01:42:29;98233.09;;;0.33;78.02
76205;BME280;64986;55.672;37.628;2023-02-01T01:44:58;98242.13;;;0.37;77.93
76205;BME280;64986;55.672;37.628;2023-02-01T01:47:31;98237.31;;;0.34;78.00
76205;BME280;64986;55.672;37.628;2023-02-01T01:49:59;98247.75;;;0.48;77.60
76205;BME280;64986;55.672;37.628;2023-02-01T01:52:25;98245.03;;;0.42;77.70
76205;BME280;64986;55.672;37.628;2023-02-01T01:54:52;98248.41;;;0.42;77.65
76205;BME280;64986;55.672;37.628;2023-02-01T01:57:26;98241.44;;;0.43;77.50
76205;BME280;64986;55.672;37.628;2023-02-01T02:00:05;98234.09;;;0.32;77.90
76205;BME280;64986;55.672;37.628;2023-02-01T02:02:32;98235.81;;;0.39;77.39
76205;BME280;64986;55.672;37.628;2023-02-01T02:04:58;98240.66;;;0.42;77.83
76205;BME280;64986;55.672;37.628;2023-02-01T02:07:27;98235.03;;;0.39;77.65
76205;BME280;64986;55.672;37.628;2023-02-01T02:09:54;98236.63;;;0.40;77.73
76205;BME280;64986;55.672;37.628;2023-02-01T02:12:19;98224.88;;;0.52;77.32
76205;BME280;64986;55.672;37.628;2023-02-01T02:14:45;98230.16;;;0.36;77.46
76205;BME280;64986;55.672;37.628;2023-02-01T02:17:31;98242.00;;;0.30;77.52
76205;BME280;64986;55.672;37.628;2023-02-01T02:42:12;98250.91;;;-0.04;79.20
76205;BME280;64986;55.672;37.628;2023-02-01T02:45:05;98251.66;;;0.05;78.98
76205;BME280;64986;55.672;37.628;2023-02-01T02:48:00;98257.94;;;0.11;78.74
76205;BME280;64986;55.672;37.628;2023-02-01T02:50:36;98252.56;;;0.20;78.49
76205;BME280;64986;55.672;37.628;2023-02-01T02:53:30;98244.16;;;0.18;78.18
76205;BME280;64986;55.672;37.628;2023-02-01T02:56:17;98257.13;;;0.18;78.42
76205;BME280;64986;55.672;37.628;2023-02-01T02:59:03;98248.88;;;0.15;78.31
76205;BME280;64986;55.672;37.628;2023-02-01T03:01:48;98240.03;;;0.09;78.28
76205;BME280;64986;55.672;37.628;2023-02-01T03:04:33;98245.47;;;0.14;78.52
76205;BME280;64986;55.672;37.628;2023-02-01T03:07:13;98247.38;;;0.20;78.73
76205;BME280;64986;55.672;37.628;2023-02-01T03:09:40;98256.81;;;0.13;78.94
76205;BME280;64986;55.672;37.628;2023-02-01T03:12:12;98263.59;;;0.14;78.90
76205;BME280;64986;55.672;37.628;2023-02-01T03:15:05;98260.97;;;0.22;78.74
76205;BME280;64986;55.672;37.628;2023-02-01T03:17:39;98258.38;;;0.22;78.30
76205;BME280;64986;55.672;37.628;2023-02-01T03:20:08;98259.88;;;0.17;78.63
76205;BME280;64986;55.672;37.628;2023-02-01T03:22:37;98259.69;;;0.18;78.91
76205;BME280;64986;55.672;37.628;2023-02-01T03:25:09;98260.63;;;0.25;78.45
76205;BME280;64986;55.672;37.628;2023-02-01T03:28:03;98263.53;;;0.31;78.43
76205;BME280;64986;55.672;37.628;2023-02-01T03:30:36;98259.84;;;0.25;78.32
76205;BME280;64986;55.672;37.628;2023-02-01T03:33:05;98262.56;;;0.32;78.33
76205;BME280;64986;55.672;37.628;2023-02-01T03:47:06;98269.94;;;0.43;78.08
76205;BME280;64986;55.672;37.628;2023-02-01T03:49:36;98275.16;;;0.35;78.38
76205;BME280;64986;55.672;37.628;2023-02-01T03:52:05;98276.94;;;0.34;78.42
76205;BME280;64986;55.672;37.628;2023-02-01T03:54:32;98273.88;;;0.31;78.26
76205;BME280;64986;55.672;37.628;2023-02-01T03:57:02;98286.31;;;0.35;78.19
76205;BME280;64986;55.672;37.628;2023-02-01T03:59:30;98285.69;;;0.33;78.50
76205;BME280;64986;55.672;37.628;2023-02-01T04:01:55;98281.94;;;0.36;78.33
76205;BME280;64986;55.672;37.628;2023-02-01T04:04:21;98291.47;;;0.35;78.90
76205;BME280;64986;55.672;37.628;2023-02-01T04:06:48;98288.41;;;0.40;78.40
76205;BME280;64986;55.672;37.628;2023-02-01T04:09:14;98296.44;;;0.45;78.25
76205;BME280;64986;55.672;37.628;2023-02-01T04:11:39;98302.59;;;0.44;78.44
76205;BME280;64986;55.672;37.628;2023-02-01T04:14:05;98303.41;;;0.44;78.13
76205;BME280;64986;55.672;37.628;2023-02-01T04:16:31;98312.28;;;0.50;78.29
76205;BME280;64986;55.672;37.628;2023-02-01T04:18:57;98305.16;;;0.52;78.10
76205;BME280;64986;55.672;37.628;2023-02-01T04:21:24;98320.03;;;0.50;77.81
76205;BME280;64986;55.672;37.628;2023-02-01T04:23:50;98311.59;;;0.56;78.02
76205;BME280;64986;55.672;37.628;2023-02-01T04:26:16;98311.25;;;0.59;78.05
76205;BME280;64986;55.672;37.628;2023-02-01T04:28:41;98316.47;;;0.51;78.25
76205;BME280;64986;55.672;37.628;2023-02-01T04:31:07;98314.31;;;0.63;77.94
76205;BME280;64986;55.672;37.628;2023-02-01T04:33:32;98315.47;;;0.60;78.09
76205;BME280;64986;55.672;37.628;2023-02-01T04:35:58;98309.09;;;0.71;77.37
76205;BME280;64986;55.672;37.628;2023-02-01T04:38:23;98308.03;;;0.57;77.42
76205;BME280;64986;55.672;37.628;2023-02-01T04:40:49;98319.25;;;0.49;77.91
76205;BME280;64986;55.672;37.628;2023-02-01T04:43:16;98312.50;;;0.40;77.95
76205;BME280;64986;55.672;37.628;2023-02-01T04:45:46;98312.94;;;0.44;78.17
76205;BME280;64986;55.672;37.628;2023-02-01T04:48:12;98322.19;;;0.46;78.01
76205;BME280;64986;55.672;37.628;2023-02-01T04:50:37;98321.91;;;0.64;77.57
76205;BME280;64986;55.672;37.628;2023-02-01T04:53:03;98326.84;;;0.51;77.72
76205;BME280;64986;55.672;37.628;2023-02-01T04:55:28;98330.22;;;0.51;77.84
76205;BME280;64986;55.672;37.628;2023-02-01T04:57:54;98341.38;;;0.52;77.82
76205;BME280;64986;55.672;37.628;2023-02-01T05:00:20;98336.69;;;0.55;77.65
76205;BME280;64986;55.672;37.628;2023-02-01T05:02:46;98331.56;;;0.47;77.93
76205;BME280;64986;55.672;37.628;2023-02-01T05:05:11;98331.41;;;0.41;77.95
76205;BME280;64986;55.672;37.628;2023-02-01T05:07:37;98332.84;;;0.43;78.16
76205;BME280;64986;55.672;37.628;2023-02-01T05:10:02;98341.94;;;0.39;78.15
76205;BME280;64986;55.672;37.628;2023-02-01T05:12:29;98343.88;;;0.37;78.17
76205;BME280;64986;55.672;37.628;2023-02-01T05:15:13;98350.00;;;0.44;77.94
76205;BME280;64986;55.672;37.628;2023-02-01T05:17:38;98344.38;;;0.41;78.11
76205;BME280;64986;55.672;37.628;2023-02-01T05:20:06;98349.03;;;0.45;78.36
76205;BME280;64986;55.672;37.628;2023-02-01T05:22:32;98351.50;;;0.39;78.67
76205;BME280;64986;55.672;37.628;2023-02-01T05:24:57;98353.38;;;0.45;78.22
76205;BME280;64986;55.672;37.628;2023-02-01T05:27:23;98354.88;;;0.39;78.34
76205;BME280;64986;55.672;37.628;2023-02-01T05:29:48;98355.22;;;0.36;78.63
76205;BME280;64986;55.672;37.628;2023-02-01T05:32:14;98346.94;;;0.41;78.51
76205;BME280;64986;55.672;37.628;2023-02-01T05:34:39;98346.78;;;0.42;78.52
76205;BME280;64986;55.672;37.628;2023-02-01T05:37:05;98354.53;;;0.42;78.20
76205;BME280;64986;55.672;37.628;2023-02-01T05:39:30;98358.47;;;0.38;78.19
76205;BME280;64986;55.672;37.628;2023-02-01T05:41:56;98359.53;;;0.44;78.86
76205;BME280;64986;55.672;37.628;2023-02-01T05:44:21;98356.97;;;0.44;78.38
76205;BME280;64986;55.672;37.628;2023-02-01T05:46:47;98357.28;;;0.49;78.11
76205;BME280;64986;55.672;37.628;2023-02-01T05:49:12;98356.50;;;0.40;78.23
76205;BME280;64986;55.672;37.628;2023-02-01T05:51:38;98360.38;;;0.36;78.39
76205;BME280;64986;55.672;37.628;2023-02-01T05:54:03;98355.38;;;0.35;78.78
76205;BME280;64986;55.672;37.628;2023-02-01T05:56:29;98363.94;;;0.35;78.68
76205;BME280;64986;55.672;37.628;2023-02-01T05:58:54;98367.03;;;0.39;78.63
76205;BME280;64986;55.672;37.628;2023-02-01T06:01:20;98367.97;;;0.46;78.52
76205;BME280;64986;55.672;37.628;2023-02-01T06:03:45;98369.91;;;0.44;78.62
76205;BME280;64986;55.672;37.628;2023-02-01T06:06:11;98367.84;;;0.39;78.86
76205;BME280;64986;55.672;37.628;2023-02-01T06:08:36;98372.84;;;0.41;78.54
76205;BME280;64986;55.672;37.628;2023-02-01T06:11:05;98377.03;;;0.42;78.76
76205;BME280;64986;55.672;37.628;2023-02-01T06:13:32;98379.41;;;0.51;78.46
76205;BME280;64986;55.672;37.628;2023-02-01T06:15:58;98382.53;;;0.47;78.37
76205;BME280;64986;55.672;37.628;2023-02-01T06:18:24;98379.00;;;0.40;78.65
76205;BME280;64986;55.672;37.628;2023-02-01T06:20:56;98384.13;;;0.48;78.24
76205;BME280;64986;55.672;37.628;2023-02-01T06:23:22;98385.09;;;0.55;78.22
76205;BME280;64986;55.672;37.628;2023-02-01T06:25:52;98389.13;;;0.49;78.22
76205;BME280;64986;55.672;37.628;2023-02-01T06:28:23;98383.47;;;0.54;78.06
76205;BME280;64986;55.672;37.628;2023-02-01T06:30:49;98384.28;;;0.54;77.67
76205;BME280;64986;55.672;37.628;2023-02-01T06:33:14;98388.78;;;0.52;78.21
76205;BME280;64986;55.672;37.628;2023-02-01T06:35:41;98394.50;;;0.48;77.94
76205;BME280;64986;55.672;37.628;2023-02-01T06:38:11;98393.16;;;0.52;78.05
76205;BME280;64986;55.672;37.628;2023-02-01T06:40:38;98391.06;;;0.55;77.88
76205;BME280;64986;55.672;37.628;2023-02-01T06:43:03;98398.31;;;0.60;77.50
76205;BME280;64986;55.672;37.628;2023-02-01T06:45:29;98394.47;;;0.56;77.76
76205;BME280;64986;55.672;37.628;2023-02-01T06:47:55;98393.84;;;0.54;77.63
76205;BME280;64986;55.672;37.628;2023-02-01T06:50:20;98397.41;;;0.53;77.78
76205;BME280;64986;55.672;37.628;2023-02-01T06:52:46;98398.34;;;0.52;77.46
76205;BME280;64986;55.672;37.628;2023-02-01T06:55:11;98388.00;;;0.52;77.23
76205;BME280;64986;55.672;37.628;2023-02-01T06:57:38;98396.06;;;0.57;77.40
76205;BME280;64986;55.672;37.628;2023-02-01T07:00:04;98400.09;;;0.60;77.29
76205;BME280;64986;55.672;37.628;2023-02-01T07:02:30;98396.19;;;0.72;77.28
76205;BME280;64986;55.672;37.628;2023-02-01T07:04:55;98396.63;;;0.75;76.82
76205;BME280;64986;55.672;37.628;2023-02-01T07:07:21;98386.28;;;0.75;76.95
76205;BME280;64986;55.672;37.628;2023-02-01T07:09:48;98405.34;;;0.82;76.81
76205;BME280;64986;55.672;37.628;2023-02-01T07:12:14;98390.59;;;0.83;76.39
76205;BME280;64986;55.672;37.628;2023-02-01T07:14:40;98400.34;;;0.81;76.32
76205;BME280;64986;55.672;37.628;2023-02-01T07:17:05;98395.03;;;0.74;76.57
76205;BME280;64986;55.672;37.628;2023-02-01T07:19:31;98415.38;;;0.86;76.94
76205;BME280;64986;55.672;37.628;2023-02-01T07:21:56;98414.53;;;0.93;76.60
76205;BME280;64986;55.672;37.628;2023-02-01T07:24:22;98420.16;;;0.97;76.67
76205;BME280;64986;55.672;37.628;2023-02-01T07:26:47;98425.31;;;1.05;76.25
76205;BME280;64986;55.672;37.628;2023-02-01T07:29:14;98425.84;;;1.00;75.92
76205;BME280;64986;55.672;37.628;2023-02-01T07:31:39;98414.72;;;0.92;75.76
76205;BME280;64986;55.672;37.628;2023-02-01T07:34:05;98422.06;;;0.72;75.91
76205;BME280;64986;55.672;37.628;2023-02-01T07:36:30;98423.53;;;0.66;76.09
76205;BME280;64986;55.672;37.628;2023-02-01T07:38:57;98420.31;;;0.64;76.39
76205;BME280;64986;55.672;37.628;2023-02-01T07:41:23;98420.97;;;0.66;76.43
76205;BME280;64986;55.672;37.628;2023-02-01T07:43:48;98423.22;;;0.69;76.15
76205;BME280;64986;55.672;37.628;2023-02-01T07:46:16;98417.63;;;0.89;75.83
76205;BME280;64986;55.672;37.628;2023-02-01T07:48:41;98429.31;;;0.85;76.07
76205;BME280;64986;55.672;37.628;2023-02-01T07:51:13;98425.41;;;0.89;75.56
76205;BME280;64986;55.672;37.628;2023-02-01T07:53:39;98425.44;;;0.80;75.65
76205;BME280;64986;55.672;37.628;2023-02-01T07:56:11;98424.75;;;0.87;75.82
76205;BME280;64986;55.672;37.628;2023-02-01T07:58:37;98424.38;;;0.98;75.91
76205;BME280;64986;55.672;37.628;2023-02-01T08:01:02;98418.56;;;0.96;75.34
76205;BME280;64986;55.672;37.628;2023-02-01T08:03:51;98422.47;;;0.92;75.18
76205;BME280;64986;55.672;37.628;2023-02-01T08:06:17;98419.59;;;0.87;75.58
76205;BME280;64986;55.672;37.628;2023-02-01T08:08:45;98420.78;;;1.07;75.75
76205;BME280;64986;55.672;37.628;2023-02-01T08:11:12;98413.91;;;1.22;75.18
76205;BME280;64986;55.672;37.628;2023-02-01T08:13:38;98417.25;;;1.31;75.04
76205;BME280;64986;55.672;37.628;2023-02-01T08:16:06;98410.09;;;1.33;74.65
76205;BME280;64986;55.672;37.628;2023-02-01T08:18:32;98412.13;;;1.46;74.34
76205;BME280;64986;55.672;37.628;2023-02-01T08:21:03;98411.69;;;1.57;73.32
76205;BME280;64986;55.672;37.628;2023-02-01T08:23:29;98418.63;;;1.64;73.93
76205;BME280;64986;55.672;37.628;2023-02-01T08:26:04;98415.63;;;1.53;72.59
76205;BME280;64986;55.672;37.628;2023-02-01T08:28:30;98407.97;;;1.59;73.44
76205;BME280;64986;55.672;37.628;2023-02-01T08:30:55;98410.03;;;1.64;73.26
76205;BME280;64986;55.672;37.628;2023-02-01T08:33:21;98416.03;;;1.64;73.12
76205;BME280;64986;55.672;37.628;2023-02-01T08:35:47;98394.53;;;1.56;73.04
76205;BME280;64986;55.672;37.628;2023-02-01T08:38:13;98416.88;;;1.80;73.08
76205;BME280;64986;55.672;37.628;2023-02-01T08:40:38;98411.09;;;1.92;73.03
76205;BME280;64986;55.672;37.628;2023-02-01T08:43:07;98407.81;;;1.99;73.12
76205;BME280;64986;55.672;37.628;2023-02-01T08:45:32;98405.03;;;2.15;72.26
76205;BME280;64986;55.672;37.628;2023-02-01T08:47:59;98407.13;;;2.19;71.73
76205;BME280;64986;55.672;37.628;2023-02-01T08:50:25;98412.13;;;2.21;71.53
76205;BME280;64986;55.672;37.628;2023-02-01T08:52:52;98398.97;;;2.22;71.30
76205;BME280;64986;55.672;37.628;2023-02-01T08:55:18;98401.28;;;2.32;71.36
76205;BME280;64986;55.672;37.628;2023-02-01T08:57:44;98403.38;;;2.37;71.03
76205;BME280;64986;55.672;37.628;2023-02-01T09:02:41;98389.84;;;2.12;71.07
76205;BME280;64986;55.672;37.628;2023-02-01T09:05:07;98407.25;;;2.03;70.91
76205;BME280;64986;55.672;37.628;2023-02-01T09:07:33;98401.97;;;2.11;70.83
76205;BME280;64986;55.672;37.628;2023-02-01T09:09:59;98410.25;;;2.15;71.14
76205;BME280;64986;55.672;37.628;2023-02-01T09:12:29;98401.47;;;2.16;71.01
76205;BME280;64986;55.672;37.628;2023-02-01T09:14:56;98402.25;;;2.16;70.86
76205;BME280;64986;55.672;37.628;2023-02-01T09:17:22;98398.06;;;2.15;71.09
76205;BME280;64986;55.672;37.628;2023-02-01T09:19:48;98394.38;;;2.25;71.01
76205;BME280;64986;55.672;37.628;2023-02-01T09:22:14;98398.69;;;2.32;70.55
76205;BME280;64986;55.672;37.628;2023-02-01T09:24:41;98387.16;;;2.20;70.42
76205;BME280;64986;55.672;37.628;2023-02-01T09:27:07;98394.66;;;2.30;70.25
76205;BME280;64986;55.672;37.628;2023-02-01T09:29:32;98399.78;;;2.38;70.49
76205;BME280;64986;55.672;37.628;2023-02-01T09:31:58;98397.56;;;2.35;70.01
76205;BME280;64986;55.672;37.628;2023-02-01T09:34:23;98390.09;;;2.32;70.13
76205;BME280;64986;55.672;37.628;2023-02-01T09:36:49;98390.19;;;2.38;69.91
76205;BME280;64986;55.672;37.628;2023-02-01T09:39:14;98396.66;;;2.42;69.53
76205;BME280;64986;55.672;37.628;2023-02-01T09:46:40;98385.16;;;1.92;70.46
76205;BME280;64986;55.672;37.628;2023-02-01T09:49:22;98384.81;;;2.10;70.02
76205;BME280;64986;55.672;37.628;2023-02-01T09:51:51;98387.13;;;1.90;70.12
76205;BME280;64986;55.672;37.628;2023-02-01T09:54:25;98387.91;;;1.91;69.75
76205;BME280;64986;55.672;37.628;2023-02-01T09:59:34;98380.53;;;1.80;70.60
76205;BME280;64986;55.672;37.628;2023-02-01T10:02:05;98374.28;;;1.74;70.92
76205;BME280;64986;55.672;37.628;2023-02-01T10:04:36;98374.22;;;1.82;70.75
76205;BME280;64986;55.672;37.628;2023-02-01T10:15:15;98371.31;;;2.30;70.77
76205;BME280;64986;55.672;37.628;2023-02-01T10:21:10;98376.31;;;2.61;69.58
76205;BME280;64986;55.672;37.628;2023-02-01T10:26:37;98366.09;;;2.44;69.13
76205;BME280;64986;55.672;37.628;2023-02-01T10:29:16;98368.16;;;2.34;69.70
76205;BME280;64986;55.672;37.628;2023-02-01T10:31:43;98369.94;;;2.19;70.26
76205;BME280;64986;55.672;37.628;2023-02-01T10:34:27;98372.28;;;1.99;70.48
76205;BME280;64986;55.672;37.628;2023-02-01T10:36:59;98367.97;;;1.91;71.05
76205;BME280;64986;55.672;37.628;2023-02-01T10:39:25;98377.94;;;1.80;71.13
76205;BME280;64986;55.672;37.628;2023-02-01T10:41:51;98367.13;;;1.76;70.90
76205;BME280;64986;55.672;37.628;2023-02-01T10:44:20;98373.03;;;1.70;70.78
76205;BME280;64986;55.672;37.628;2023-02-01T10:46:48;98370.44;;;1.70;71.34
76205;BME280;64986;55.672;37.628;2023-02-01T10:49:22;98373.03;;;1.70;71.14
76205;BME280;64986;55.672;37.628;2023-02-01T10:52:15;98378.50;;;1.75;70.75
76205;BME280;64986;55.672;37.628;2023-02-01T10:54:42;98380.13;;;1.53;71.68
76205;BME280;64986;55.672;37.628;2023-02-01T10:57:22;98378.22;;;1.47;71.93
76205;BME280;64986;55.672;37.628;2023-02-01T10:59:49;98366.53;;;1.51;71.80
76205;BME280;64986;55.672;37.628;2023-02-01T11:02:31;98373.44;;;1.59;71.48
76205;BME280;64986;55.672;37.628;2023-02-01T11:05:24;98377.78;;;1.44;71.58
76205;BME280;64986;55.672;37.628;2023-02-01T11:07:53;98385.50;;;1.29;72.22
76205;BME280;64986;55.672;37.628;2023-02-01T11:10:39;98374.78;;;1.09;72.92
76205;BME280;64986;55.672;37.628;2023-02-01T11:13:13;98375.22;;;1.13;73.13
76205;BME280;64986;55.672;37.628;2023-02-01T11:15:45;98377.44;;;1.24;72.94
76205;BME280;64986;55.672;37.628;2023-02-01T11:18:19;98370.91;;;1.28;72.40
76205;BME280;64986;55.672;37.628;2023-02-01T11:20:46;98379.16;;;1.31;72.43
76205;BME280;64986;55.672;37.628;2023-02-01T11:23:25;98377.94;;;1.42;71.58
76205;BME280;64986;55.672;37.628;2023-02-01T11:26:07;98375.41;;;1.57;71.92
76205;BME280;64986;55.672;37.628;2023-02-01T11:28:38;98379.41;;;1.45;71.38
76205;BME280;64986;55.672;37.628;2023-02-01T11:31:09;98378.22;;;1.47;71.70
76205;BME280;64986;55.672;37.628;2023-02-01T11:33:38;98375.94;;;1.52;71.60
76205;BME280;64986;55.672;37.628;2023-02-01T11:36:15;98386.13;;;1.54;71.23
76205;BME280;64986;55.672;37.628;2023-02-01T11:38:51;98380.72;;;1.41;71.55
76205;BME280;64986;55.672;37.628;2023-02-01T11:41:24;98381.63;;;1.48;70.90
76205;BME280;64986;55.672;37.628;2023-02-01T11:43:58;98381.63;;;1.48;71.83
76205;BME280;64986;55.672;37.628;2023-02-01T11:46:29;98378.72;;;1.65;70.83
76205;BME280;64986;55.672;37.628;2023-02-01T11:48:57;98382.78;;;1.68;70.62
76205;BME280;64986;55.672;37.628;2023-02-01T11:54:48;98387.72;;;1.78;70.37
76205;BME280;64986;55.672;37.628;2023-02-01T12:05:46;98398.53;;;1.81;70.22
76205;BME280;64986;55.672;37.628;2023-02-01T12:13:42;98401.50;;;1.55;70.00
76205;BME280;64986;55.672;37.628;2023-02-01T12:21:44;98394.78;;;1.46;70.43
76205;BME280;64986;55.672;37.628;2023-02-01T12:27:05;98414.09;;;1.44;70.04
76205;BME280;64986;55.672;37.628;2023-02-01T12:38:36;98422.84;;;1.11;70.24
76205;BME280;64986;55.672;37.628;2023-02-01T12:41:31;98425.50;;;1.03;70.05
76205;BME280;64986;55.672;37.628;2023-02-01T12:46:52;98421.47;;;1.01;70.19
76205;BME280;64986;55.672;37.628;2023-02-01T12:49:23;98421.38;;;1.17;70.03
76205;BME280;64986;55.672;37.628;2023-02-01T12:51:58;98419.28;;;1.35;69.89
76205;BME280;64986;55.672;37.628;2023-02-01T12:54:37;98420.47;;;1.33;69.41
76205;BME280;64986;55.672;37.628;2023-02-01T12:57:11;98412.13;;;1.46;69.89
76205;BME280;64986;55.672;37.628;2023-02-01T12:59:42;98407.63;;;1.39;69.21
76205;BME280;64986;55.672;37.628;2023-02-01T13:07:38;98423.84;;;1.33;69.31
76205;BME280;64986;55.672;37.628;2023-02-01T13:10:15;98421.31;;;1.25;69.34
76205;BME280;64986;55.672;37.628;2023-02-01T13:12:54;98423.56;;;1.28;69.48
76205;BME280;64986;55.672;37.628;2023-02-01T13:15:28;98420.75;;;1.15;69.40
76205;BME280;64986;55.672;37.628;2023-02-01T13:17:56;98432.09;;;1.14;69.21
76205;BME280;64986;55.672;37.628;2023-02-01T13:20:25;98420.25;;;1.11;69.13
76205;BME280;64986;55.672;37.628;2023-02-01T13:22:59;98425.75;;;1.17;69.06
76205;BME280;64986;55.672;37.628;2023-02-01T13:25:31;98427.13;;;0.96;69.17
76205;BME280;64986;55.672;37.628;2023-02-01T13:28:06;98422.94;;;0.95;69.04
76205;BME280;64986;55.672;37.628;2023-02-01T13:42:22;98425.91;;;0.84;69.25
76205;BME280;64986;55.672;37.628;2023-02-01T13:44:56;98431.09;;;0.84;68.98
76205;BME280;64986;55.672;37.628;2023-02-01T13:47:33;98433.34;;;0.87;69.25
76205;BME280;64986;55.672;37.628;2023-02-01T13:50:13;98433.91;;;0.66;68.69
76205;BME280;64986;55.672;37.628;2023-02-01T13:52:45;98420.31;;;0.64;69.42
76205;BME280;64986;55.672;37.628;2023-02-01T13:57:47;98428.69;;;0.74;69.43
76205;BME280;64986;55.672;37.628;2023-02-01T14:00:37;98430.16;;;0.77;68.92
76205;BME280;64986;55.672;37.628;2023-02-01T14:10:54;98439.00;;;0.82;69.38
76205;BME280;64986;55.672;37.628;2023-02-01T14:13:41;98433.84;;;0.82;69.57
76205;BME280;64986;55.672;37.628;2023-02-01T14:16:12;98431.13;;;0.76;69.66
76205;BME280;64986;55.672;37.628;2023-02-01T14:21:21;98439.50;;;0.86;69.22
76205;BME280;64986;55.672;37.628;2023-02-01T14:26:40;98440.22;;;0.64;70.15
76205;BME280;64986;55.672;37.628;2023-02-01T14:37:03;98448.50;;;0.59;70.45
76205;BME280;64986;55.672;37.628;2023-02-01T14:39:34;98441.41;;;0.53;70.47
76205;BME280;64986;55.672;37.628;2023-02-01T14:42:05;98451.06;;;0.59;70.26
76205;BME280;64986;55.672;37.628;2023-02-01T14:44:39;98440.47;;;0.46;70.14
76205;BME280;64986;55.672;37.628;2023-02-01T14:52:15;98455.31;;;0.44;70.18
76205;BME280;64986;55.672;37.628;2023-02-01T14:54:53;98461.16;;;0.38;69.47
76205;BME280;64986;55.672;37.628;2023-02-01T14:57:21;98450.81;;;0.30;70.23
76205;BME280;64986;55.672;37.628;2023-02-01T14:59:49;98451.50;;;0.32;70.04
76205;BME280;64986;55.672;37.628;2023-02-01T15:02:24;98454.22;;;0.30;70.13
76205;BME280;64986;55.672;37.628;2023-02-01T15:04:56;98458.56;;;0.38;70.10
76205;BME280;64986;55.672;37.628;2023-02-01T15:07:24;98453.41;;;0.38;70.63
76205;BME280;64986;55.672;37.628;2023-02-01T15:09:52;98461.00;;;0.39;70.15
76205;BME280;64986;55.672;37.628;2023-02-01T15:12:24;98466.03;;;0.41;70.44
76205;BME280;64986;55.672;37.628;2023-02-01T15:15:12;98464.72;;;0.53;70.24
76205;BME280;64986;55.672;37.628;2023-02-01T15:17:38;98466.31;;;0.54;70.36
76205;BME280;64986;55.672;37.628;2023-02-01T15:20:14;98468.41;;;0.59;70.18
76205;BME280;64986;55.672;37.628;2023-02-01T15:22:41;98469.72;;;0.54;70.32
76205;BME280;64986;55.672;37.628;2023-02-01T15:25:31;98469.88;;;0.61;70.17
76205;BME280;64986;55.672;37.628;2023-02-01T15:27:57;98479.41;;;0.61;70.40
76205;BME280;64986;55.672;37.628;2023-02-01T15:30:26;98470.53;;;0.55;70.24
76205;BME280;64986;55.672;37.628;2023-02-01T15:33:04;98478.28;;;0.55;70.63
76205;BME280;64986;55.672;37.628;2023-02-01T15:35:36;98480.41;;;0.43;70.15
76205;BME280;64986;55.672;37.628;2023-02-01T15:41:03;98474.47;;;0.18;70.86